Time;durP1;ratioP1;P1;durP2;ratioP2;P2;SDS_P1;SDS_P2;PMS_P1;PMS_P2;Temp;Humidity;BMP_temperature;BMP_pressure;BME280_temperature;BME280_humidity;BME280_pressure;Samples;Min_cycle;Max_cycle;Signal;HPM_P1;HPM_P2
2023/06/20 00:00:14;;;;;;;15.63;14.00;;;17.40;99.90;;;;;;4995324;28;20087;-76
2023/06/20 00:02:40;;;;;;;15.45;14.05;;;17.40;99.90;;;;;;5011775;28;20080;-75
2023/06/20 00:05:06;;;;;;;16.40;14.20;;;17.40;99.90;;;;;;4994555;28;20038;-76
2023/06/20 00:07:33;;;;;;;16.75;15.02;;;17.40;99.90;;;;;;5011421;28;20593;-75
2023/06/20 00:09:59;;;;;;;15.38;13.80;;;17.40;99.90;;;;;;5006145;28;20048;-76
2023/06/20 00:12:24;;;;;;;16.25;14.60;;;17.40;99.90;;;;;;4994939;28;20037;-72
2023/06/20 00:14:50;;;;;;;15.52;14.02;;;17.30;99.90;;;;;;4991020;28;20548;-76
2023/06/20 00:17:17;;;;;;;15.75;14.23;;;17.30;99.90;;;;;;4993167;28;20044;-75
2023/06/20 00:19:42;;;;;;;14.93;13.45;;;17.30;99.90;;;;;;5017198;28;20049;-76
2023/06/20 00:22:08;;;;;;;14.65;13.13;;;17.20;99.90;;;;;;4982986;28;20064;-76
2023/06/20 00:24:34;;;;;;;15.25;13.75;;;17.20;99.90;;;;;;5003992;28;20068;-76
2023/06/20 00:27:03;;;;;;;14.07;12.68;;;17.20;99.90;;;;;;4994036;28;20069;-75
2023/06/20 00:29:29;;;;;;;15.73;14.05;;;17.20;99.90;;;;;;4996507;28;20513;-71
2023/06/20 00:31:55;;;;;;;15.10;13.40;;;17.20;99.90;;;;;;4985720;28;20105;-71
2023/06/20 00:34:24;;;;;;;15.93;13.57;;;17.20;99.90;;;;;;4990159;28;20033;-71
2023/06/20 00:36:50;;;;;;;13.27;12.00;;;17.20;99.90;;;;;;4978273;28;20132;-71
2023/06/20 00:39:16;;;;;;;14.68;13.20;;;17.20;99.90;;;;;;4989768;28;20069;-71
2023/06/20 00:41:45;;;;;;;14.27;12.88;;;17.20;99.90;;;;;;4990441;28;20077;-71
2023/06/20 00:44:11;;;;;;;14.25;12.60;;;17.20;99.90;;;;;;4989129;28;20514;-71
2023/06/20 00:46:42;;;;;;;13.85;12.60;;;17.10;99.90;;;;;;4989274;28;20034;-72
2023/06/20 00:49:10;;;;;;;12.80;11.50;;;17.20;99.90;;;;;;5005303;28;20056;-71
2023/06/20 00:51:37;;;;;;;12.57;11.30;;;17.20;99.90;;;;;;5004176;28;20117;-70
2023/06/20 00:54:03;;;;;;;13.05;11.20;;;17.10;99.90;;;;;;5008232;28;20060;-71
2023/06/20 00:56:30;;;;;;;13.82;11.90;;;17.10;99.90;;;;;;4987273;28;20076;-71
2023/06/20 00:58:55;;;;;;;13.88;11.60;;;17.10;99.90;;;;;;4990756;28;20037;-71
2023/06/20 01:01:21;;;;;;;14.13;11.52;;;17.10;99.90;;;;;;5008317;28;20512;-71
2023/06/20 01:03:51;;;;;;;11.98;10.82;;;17.10;99.90;;;;;;5006115;28;20509;-71
2023/06/20 01:06:43;;;;;;;13.48;11.07;;;17.10;99.90;;;;;;4987616;28;20136;-71
2023/06/20 01:09:12;;;;;;;12.45;10.80;;;17.10;99.90;;;;;;5010527;28;20091;-71
2023/06/20 01:12:08;;;;;;;12.18;10.82;;;17.10;99.90;;;;;;5021191;28;20029;-71
2023/06/20 01:14:42;;;;;;;12.32;10.95;;;17.10;99.90;;;;;;4994737;28;20660;-70
2023/06/20 01:17:19;;;;;;;13.73;11.13;;;17.10;99.90;;;;;;5005358;28;20472;-71
2023/06/20 01:19:53;;;;;;;13.10;11.30;;;17.00;99.90;;;;;;4997780;28;20062;-71
2023/06/20 01:22:46;;;;;;;13.32;11.90;;;17.10;99.90;;;;;;4977818;28;20485;-71
2023/06/20 01:25:31;;;;;;;12.25;10.88;;;17.10;99.90;;;;;;4989781;28;20049;-71
2023/06/20 01:28:15;;;;;;;12.35;10.70;;;17.10;99.90;;;;;;4988485;28;20034;-71
2023/06/20 01:30:53;;;;;;;12.75;11.20;;;17.00;99.90;;;;;;5002659;28;20077;-71
2023/06/20 01:33:24;;;;;;;13.68;11.55;;;17.00;99.90;;;;;;5006796;28;20409;-71
2023/06/20 01:35:50;;;;;;;13.30;11.98;;;17.00;99.90;;;;;;5007808;28;20472;-72
2023/06/20 01:38:20;;;;;;;12.88;10.45;;;17.00;99.90;;;;;;5009352;28;20036;-71
2023/06/20 01:40:49;;;;;;;14.15;11.93;;;17.00;99.90;;;;;;5025916;28;20048;-71
2023/06/20 01:43:17;;;;;;;13.70;11.70;;;17.00;99.90;;;;;;5010272;28;20574;-71
2023/06/20 01:45:46;;;;;;;12.25;10.98;;;17.00;99.90;;;;;;5024060;28;20073;-71
2023/06/20 01:48:14;;;;;;;14.25;12.85;;;17.00;99.90;;;;;;5013470;28;20438;-71
2023/06/20 01:50:40;;;;;;;14.48;12.55;;;17.00;99.90;;;;;;5004143;28;20074;-71
2023/06/20 01:53:08;;;;;;;13.88;12.35;;;17.00;99.90;;;;;;5025841;28;20052;-71
2023/06/20 01:55:36;;;;;;;13.68;12.27;;;17.00;99.90;;;;;;5017259;28;20036;-71
2023/06/20 01:58:03;;;;;;;13.85;12.52;;;17.00;99.90;;;;;;5025142;28;20049;-72
2023/06/20 02:00:29;;;;;;;15.10;13.40;;;17.00;99.90;;;;;;5008114;28;20766;-71
2023/06/20 02:03:00;;;;;;;15.60;14.07;;;17.00;99.90;;;;;;5026488;28;20151;-71
2023/06/20 02:05:29;;;;;;;14.25;12.93;;;17.10;99.90;;;;;;5024359;28;20082;-72
2023/06/20 02:07:57;;;;;;;15.70;14.10;;;17.10;99.90;;;;;;5025091;28;20071;-71
2023/06/20 02:10:25;;;;;;;16.10;14.60;;;17.10;99.90;;;;;;5025355;28;20040;-72
2023/06/20 02:12:54;;;;;;;16.58;14.70;;;17.20;99.90;;;;;;5009460;28;20049;-71
2023/06/20 02:15:22;;;;;;;16.52;14.77;;;17.20;99.90;;;;;;5010627;28;20048;-71
2023/06/20 02:17:48;;;;;;;15.90;14.30;;;17.20;99.90;;;;;;5020929;28;20071;-71
2023/06/20 02:20:14;;;;;;;18.50;14.75;;;17.20;99.90;;;;;;5022599;28;20893;-72
2023/06/20 02:22:46;;;;;;;16.83;15.13;;;17.20;99.90;;;;;;5010602;28;20401;-71
2023/06/20 02:25:19;;;;;;;18.67;15.60;;;17.20;99.90;;;;;;5023164;28;20405;-72
2023/06/20 02:27:47;;;;;;;17.38;15.75;;;17.30;99.90;;;;;;5021660;28;20045;-71
2023/06/20 02:30:18;;;;;;;17.60;15.80;;;17.30;99.90;;;;;;5023829;28;20083;-77
2023/06/20 02:32:45;;;;;;;18.52;16.73;;;17.30;99.90;;;;;;5006859;28;20103;-76
2023/06/20 02:35:13;;;;;;;18.88;16.98;;;17.30;99.90;;;;;;5022437;28;20052;-76
2023/06/20 02:37:44;;;;;;;17.70;15.95;;;17.30;99.90;;;;;;4995344;28;20049;-76
2023/06/20 02:40:14;;;;;;;18.70;16.83;;;17.30;99.90;;;;;;5017274;28;20059;-76
2023/06/20 02:42:39;;;;;;;19.95;18.08;;;17.30;99.90;;;;;;5003584;28;20033;-72
2023/06/20 02:45:06;;;;;;;21.85;17.58;;;17.20;99.90;;;;;;5026429;28;20049;-71
2023/06/20 02:47:48;;;;;;;18.35;16.23;;;17.30;99.90;;;;;;5025348;28;20408;-72
2023/06/20 02:50:13;;;;;;;18.40;16.50;;;17.30;99.90;;;;;;5005259;28;20493;-72
2023/06/20 02:53:11;;;;;;;19.63;17.73;;;17.20;99.90;;;;;;5022610;28;20115;-72
2023/06/20 02:55:45;;;;;;;19.65;17.67;;;17.10;99.90;;;;;;5020165;28;20120;-72
2023/06/20 02:58:13;;;;;;;19.75;17.67;;;17.20;99.90;;;;;;5021905;28;20041;-71
2023/06/20 03:00:43;;;;;;;19.17;17.38;;;17.20;99.90;;;;;;5023852;28;20051;-71
2023/06/20 03:03:25;;;;;;;19.45;17.27;;;17.10;99.90;;;;;;5021171;28;20081;-71
2023/06/20 03:05:58;;;;;;;20.05;17.95;;;17.20;99.90;;;;;;5024804;28;20071;-75
2023/06/20 03:08:27;;;;;;;19.92;17.92;;;17.20;99.90;;;;;;5004445;28;20037;-75
2023/06/20 03:10:54;;;;;;;21.17;19.13;;;17.20;99.90;;;;;;5022202;28;20045;-76
2023/06/20 03:13:23;;;;;;;21.73;19.25;;;17.10;99.90;;;;;;5009293;28;20123;-76
2023/06/20 03:15:52;;;;;;;22.25;20.13;;;17.10;99.90;;;;;;5022152;28;20094;-76
2023/06/20 03:18:18;;;;;;;20.77;18.85;;;17.10;99.90;;;;;;5024601;28;20112;-75
2023/06/20 03:20:48;;;;;;;21.70;19.63;;;17.10;99.90;;;;;;5024789;28;20048;-76
2023/06/20 03:23:14;;;;;;;21.80;19.48;;;17.10;99.90;;;;;;5018276;28;20060;-76
2023/06/20 03:25:41;;;;;;;24.83;21.55;;;17.10;99.90;;;;;;5024201;28;20048;-76
2023/06/20 03:28:12;;;;;;;23.17;20.88;;;17.10;99.90;;;;;;5022213;28;20053;-77
2023/06/20 03:30:38;;;;;;;22.95;20.65;;;17.10;99.90;;;;;;5004807;28;20071;-76
2023/06/20 03:33:04;;;;;;;23.30;20.90;;;17.10;99.90;;;;;;5025382;28;20049;-77
2023/06/20 03:35:30;;;;;;;21.92;19.83;;;17.10;99.90;;;;;;5007760;28;20492;-77
2023/06/20 03:37:56;;;;;;;28.10;21.70;;;17.10;99.90;;;;;;5027916;28;20530;-76
2023/06/20 03:40:22;;;;;;;22.88;20.30;;;17.10;99.90;;;;;;5028561;28;20087;-77
2023/06/20 03:42:49;;;;;;;22.17;20.08;;;17.10;99.90;;;;;;5028471;28;20033;-76
2023/06/20 03:45:15;;;;;;;22.27;20.27;;;17.10;99.90;;;;;;5009216;28;20106;-77
2023/06/20 03:47:44;;;;;;;21.83;19.60;;;17.10;99.90;;;;;;5010040;28;20052;-76
2023/06/20 03:50:10;;;;;;;24.05;21.75;;;17.10;99.90;;;;;;5028494;28;20143;-76
2023/06/20 03:52:35;;;;;;;22.65;20.33;;;17.10;99.90;;;;;;5011196;28;20132;-76
2023/06/20 03:55:01;;;;;;;23.92;21.65;;;17.10;99.90;;;;;;5027085;28;20574;-72
2023/06/20 03:57:27;;;;;;;23.65;21.15;;;17.10;99.90;;;;;;4992298;28;20037;-73
2023/06/20 03:59:53;;;;;;;24.48;22.17;;;17.10;99.90;;;;;;5017699;28;20037;-72
2023/06/20 04:02:21;;;;;;;24.00;21.77;;;17.10;99.90;;;;;;5018907;28;20064;-71
2023/06/20 04:04:49;;;;;;;22.85;20.67;;;17.00;99.90;;;;;;5010585;28;20044;-71
2023/06/20 04:07:18;;;;;;;23.65;21.35;;;17.00;99.90;;;;;;5023637;28;20041;-71
2023/06/20 04:09:50;;;;;;;22.35;20.08;;;17.00;99.90;;;;;;5000660;28;20586;-71
2023/06/20 04:12:16;;;;;;;22.42;20.23;;;17.00;99.90;;;;;;5029478;28;20115;-71
2023/06/20 04:14:42;;;;;;;25.42;21.40;;;17.00;99.90;;;;;;5030638;28;20032;-71
2023/06/20 04:17:09;;;;;;;23.05;20.70;;;17.10;99.90;;;;;;5027904;28;20420;-71
2023/06/20 04:19:34;;;;;;;23.75;21.25;;;17.10;99.90;;;;;;5006257;28;20090;-71
2023/06/20 04:22:00;;;;;;;21.90;19.75;;;17.10;99.90;;;;;;5029769;28;20041;-71
2023/06/20 04:24:26;;;;;;;21.83;19.85;;;17.10;99.90;;;;;;5027226;28;20315;-71
2023/06/20 04:26:54;;;;;;;21.13;19.02;;;17.10;99.90;;;;;;5025095;28;20045;-71
2023/06/20 04:29:20;;;;;;;20.48;18.58;;;17.10;99.90;;;;;;5008166;28;20049;-71
2023/06/20 04:31:47;;;;;;;21.13;19.02;;;17.20;99.90;;;;;;5008544;28;20079;-72
2023/06/20 04:34:13;;;;;;;19.98;18.00;;;17.20;99.90;;;;;;5008446;28;20065;-72
2023/06/20 04:36:38;;;;;;;19.40;17.50;;;17.20;99.90;;;;;;5028293;28;20079;-72
2023/06/20 04:39:06;;;;;;;20.40;18.42;;;17.20;99.90;;;;;;5026052;28;20464;-71
2023/06/20 04:41:32;;;;;;;18.85;17.15;;;17.20;99.90;;;;;;5003905;28;20684;-72
2023/06/20 04:44:00;;;;;;;19.95;17.27;;;17.30;99.90;;;;;;5025696;28;20128;-72
2023/06/20 04:46:29;;;;;;;19.90;17.45;;;17.30;99.90;;;;;;4979586;28;20037;-72
2023/06/20 04:48:54;;;;;;;18.45;16.75;;;17.40;99.90;;;;;;5010831;28;20037;-71
2023/06/20 04:51:20;;;;;;;18.65;16.85;;;17.40;99.90;;;;;;5010001;28;20041;-72
2023/06/20 04:53:49;;;;;;;18.38;16.67;;;17.50;99.90;;;;;;5006093;28;20629;-71
2023/06/20 04:56:15;;;;;;;19.52;17.40;;;17.50;99.90;;;;;;5027001;28;20076;-71
2023/06/20 04:58:45;;;;;;;17.90;15.98;;;17.50;99.90;;;;;;4995402;28;21517;-71
2023/06/20 05:01:14;;;;;;;17.65;15.85;;;17.50;99.90;;;;;;5010607;28;20036;-71
2023/06/20 05:03:42;;;;;;;18.33;16.27;;;17.60;99.90;;;;;;5026269;28;20041;-71
2023/06/20 05:06:08;;;;;;;16.50;14.98;;;17.60;99.90;;;;;;5006786;28;20048;-71
2023/06/20 05:08:34;;;;;;;18.52;16.67;;;17.60;99.90;;;;;;5023132;28;20040;-71
2023/06/20 05:11:00;;;;;;;17.10;15.30;;;17.70;99.90;;;;;;5021760;28;20107;-72
2023/06/20 05:13:25;;;;;;;16.70;15.10;;;17.70;99.90;;;;;;5027013;28;20096;-72
2023/06/20 05:15:51;;;;;;;17.10;15.40;;;17.70;99.90;;;;;;5008367;28;20436;-71
2023/06/20 05:18:17;;;;;;;17.30;15.70;;;17.80;99.90;;;;;;4991846;28;20041;-72
2023/06/20 05:20:42;;;;;;;18.00;16.20;;;17.80;99.90;;;;;;5006404;28;20094;-72
2023/06/20 05:23:08;;;;;;;17.00;15.32;;;17.90;99.90;;;;;;5008751;28;20452;-72
2023/06/20 05:25:34;;;;;;;17.52;15.98;;;17.80;99.90;;;;;;5010780;28;20044;-72
2023/06/20 05:28:00;;;;;;;16.92;15.23;;;17.90;99.90;;;;;;5024539;28;20128;-72
2023/06/20 05:30:25;;;;;;;17.73;15.82;;;17.90;99.90;;;;;;5012216;28;20139;-72
2023/06/20 05:32:52;;;;;;;17.13;15.52;;;18.00;99.90;;;;;;5005666;28;20426;-72
2023/06/20 05:35:18;;;;;;;15.82;14.30;;;18.00;99.90;;;;;;5006985;28;20044;-72
2023/06/20 05:37:46;;;;;;;17.60;15.38;;;18.10;99.90;;;;;;5003148;28;20050;-71
2023/06/20 05:40:15;;;;;;;16.95;15.25;;;18.10;99.90;;;;;;4990748;28;20057;-76
2023/06/20 05:42:44;;;;;;;18.60;15.67;;;18.30;99.90;;;;;;4995908;28;20045;-76
2023/06/20 05:45:10;;;;;;;15.40;13.90;;;18.30;99.90;;;;;;4993503;28;20056;-76
2023/06/20 05:47:36;;;;;;;16.48;14.77;;;18.40;99.90;;;;;;5007683;28;20120;-77
2023/06/20 05:50:02;;;;;;;17.15;15.35;;;18.50;99.90;;;;;;4990902;28;20132;-76
2023/06/20 05:52:27;;;;;;;15.85;14.38;;;18.50;99.90;;;;;;5011027;28;20101;-77
2023/06/20 05:54:56;;;;;;;16.67;15.07;;;18.60;99.90;;;;;;5009957;28;20401;-76
2023/06/20 05:57:22;;;;;;;16.45;14.95;;;18.60;99.90;;;;;;4976058;28;20107;-75
2023/06/20 05:59:48;;;;;;;17.15;15.48;;;18.60;99.90;;;;;;4973241;28;20045;-75
2023/06/20 06:02:15;;;;;;;16.15;14.55;;;18.70;99.90;;;;;;4997877;28;20060;-74
2023/06/20 06:04:44;;;;;;;15.82;14.32;;;18.70;99.90;;;;;;5010913;28;20129;-75
2023/06/20 06:07:13;;;;;;;15.70;14.23;;;18.80;99.90;;;;;;5022724;28;20116;-75
2023/06/20 06:09:39;;;;;;;16.30;14.75;;;18.80;99.90;;;;;;5005117;28;20046;-71
2023/06/20 06:12:09;;;;;;;16.35;14.82;;;18.90;99.90;;;;;;5010573;28;20427;-72
2023/06/20 06:14:34;;;;;;;16.25;14.65;;;18.90;99.90;;;;;;4995750;28;20041;-72
2023/06/20 06:17:00;;;;;;;16.05;14.35;;;19.00;99.90;;;;;;5010218;28;20589;-72
2023/06/20 06:19:26;;;;;;;15.93;14.43;;;19.00;99.90;;;;;;4996649;28;20045;-72
2023/06/20 06:21:52;;;;;;;15.75;14.25;;;19.10;99.90;;;;;;4993962;28;20140;-72
2023/06/20 06:24:21;;;;;;;15.10;13.63;;;19.20;99.90;;;;;;4999319;28;20076;-72
2023/06/20 06:26:47;;;;;;;14.55;13.15;;;19.30;99.90;;;;;;4992763;28;20033;-73
2023/06/20 06:29:14;;;;;;;15.40;13.90;;;19.40;99.90;;;;;;5006644;28;20128;-72
2023/06/20 06:31:40;;;;;;;15.70;14.20;;;19.50;99.90;;;;;;5003779;28;20056;-73
2023/06/20 06:34:06;;;;;;;15.38;13.88;;;19.50;99.90;;;;;;4976369;28;20048;-72
2023/06/20 06:36:33;;;;;;;16.02;14.52;;;19.50;99.90;;;;;;5015021;28;20049;-72
2023/06/20 06:39:00;;;;;;;15.00;13.55;;;19.60;99.90;;;;;;5025859;28;20545;-72
2023/06/20 06:41:26;;;;;;;17.77;14.43;;;19.60;99.90;;;;;;5040348;28;20048;-72
2023/06/20 06:43:52;;;;;;;14.65;13.25;;;19.60;99.90;;;;;;5007774;28;20101;-73
2023/06/20 06:46:18;;;;;;;15.73;14.02;;;19.70;99.90;;;;;;4990257;28;20049;-72
2023/06/20 06:48:45;;;;;;;16.55;14.98;;;19.80;99.90;;;;;;5004034;28;20040;-72
2023/06/20 06:51:15;;;;;;;16.35;14.70;;;19.80;99.90;;;;;;5008838;28;20040;-72
2023/06/20 06:53:44;;;;;;;16.75;15.18;;;19.80;99.90;;;;;;5037161;28;21221;-72
2023/06/20 06:56:09;;;;;;;15.55;14.00;;;19.90;99.90;;;;;;5010592;28;20045;-72
2023/06/20 06:58:35;;;;;;;16.00;14.50;;;19.90;99.90;;;;;;5025404;28;20152;-77
2023/06/20 07:01:02;;;;;;;15.45;14.05;;;20.00;99.90;;;;;;4991475;28;20041;-75
2023/06/20 07:03:27;;;;;;;15.02;13.63;;;20.10;99.90;;;;;;5008675;28;20047;-76
2023/06/20 07:05:53;;;;;;;14.68;13.35;;;20.10;99.90;;;;;;5007940;28;20045;-75
2023/06/20 07:08:19;;;;;;;15.68;14.07;;;20.20;99.90;;;;;;5023079;28;20041;-76
2023/06/20 07:10:47;;;;;;;15.45;14.02;;;20.30;99.90;;;;;;5009633;28;20049;-75
2023/06/20 07:13:12;;;;;;;15.07;13.57;;;20.40;99.90;;;;;;5027406;28;20926;-75
2023/06/20 07:15:38;;;;;;;15.68;14.18;;;20.40;99.90;;;;;;5012831;28;20041;-75
2023/06/20 07:18:04;;;;;;;14.85;13.55;;;20.40;99.90;;;;;;5027547;28;20099;-76
2023/06/20 07:20:30;;;;;;;15.32;13.93;;;20.40;99.90;;;;;;5026166;28;20052;-75
2023/06/20 07:22:55;;;;;;;15.13;13.63;;;20.50;99.90;;;;;;5026610;28;20055;-75
2023/06/20 07:25:21;;;;;;;14.98;13.55;;;20.50;99.90;;;;;;5026339;28;20057;-76
2023/06/20 07:27:47;;;;;;;14.25;12.98;;;20.60;99.90;;;;;;5027138;28;20049;-76
2023/06/20 07:30:13;;;;;;;15.10;13.60;;;20.70;99.90;;;;;;5008948;28;20400;-76
2023/06/20 07:32:39;;;;;;;15.20;13.63;;;20.70;99.90;;;;;;5009579;28;20051;-76
2023/06/20 07:35:05;;;;;;;14.10;12.75;;;20.80;99.90;;;;;;5012040;28;20065;-77
2023/06/20 07:37:31;;;;;;;13.90;12.52;;;20.90;99.90;;;;;;5009503;28;20051;-76
2023/06/20 07:39:56;;;;;;;14.73;13.32;;;21.00;99.90;;;;;;5010629;28;20053;-76
2023/06/20 07:42:22;;;;;;;14.02;12.82;;;21.00;99.90;;;;;;4992403;28;20041;-76
2023/06/20 07:44:48;;;;;;;15.30;13.75;;;21.00;99.90;;;;;;5029167;28;20049;-76
2023/06/20 07:47:14;;;;;;;14.77;13.48;;;21.00;99.90;;;;;;5013666;28;20045;-76
2023/06/20 07:49:40;;;;;;;15.32;13.93;;;21.00;99.90;;;;;;5009567;28;20699;-76
2023/06/20 07:52:06;;;;;;;17.30;14.95;;;21.00;99.90;;;;;;5013973;28;20049;-76
2023/06/20 07:54:31;;;;;;;15.63;14.18;;;21.00;99.90;;;;;;4995279;28;20549;-75
2023/06/20 07:56:57;;;;;;;16.13;14.63;;;20.90;99.90;;;;;;5029221;28;20480;-71
2023/06/20 07:59:23;;;;;;;16.13;14.65;;;20.90;99.90;;;;;;5028265;28;20448;-72
2023/06/20 08:01:49;;;;;;;16.52;15.02;;;20.90;99.90;;;;;;4996053;28;20452;-71
2023/06/20 08:04:15;;;;;;;16.45;14.95;;;20.80;99.90;;;;;;5009979;28;20059;-71
2023/06/20 08:06:40;;;;;;;15.57;14.07;;;20.80;99.90;;;;;;5007844;28;20144;-71
2023/06/20 08:09:06;;;;;;;16.65;15.10;;;20.80;99.90;;;;;;4988690;28;20562;-72
2023/06/20 08:11:34;;;;;;;16.80;15.30;;;20.80;99.90;;;;;;5011800;28;20051;-72
2023/06/20 08:14:00;;;;;;;16.58;15.02;;;20.80;99.90;;;;;;5011445;28;20051;-72
2023/06/20 08:16:26;;;;;;;15.32;13.82;;;20.90;99.90;;;;;;4992092;28;20084;-71
2023/06/20 08:18:52;;;;;;;16.33;14.70;;;20.90;99.90;;;;;;4980314;28;20163;-72
2023/06/20 08:21:17;;;;;;;16.83;15.25;;;21.00;99.90;;;;;;5011447;28;20045;-71
2023/06/20 08:23:45;;;;;;;16.95;15.35;;;21.00;99.90;;;;;;5027439;28;20036;-71
2023/06/20 08:26:14;;;;;;;15.88;14.45;;;21.10;99.90;;;;;;5027923;28;20684;-72
2023/06/20 08:28:40;;;;;;;16.10;14.57;;;21.10;99.90;;;;;;5009880;28;20080;-71
2023/06/20 08:31:06;;;;;;;14.98;13.68;;;21.10;99.90;;;;;;5009321;28;21113;-72
2023/06/20 08:33:31;;;;;;;16.42;14.93;;;21.20;99.90;;;;;;5026879;28;20113;-71
2023/06/20 08:35:57;;;;;;;15.90;14.40;;;21.20;99.90;;;;;;5025867;28;20123;-71
2023/06/20 08:38:23;;;;;;;16.15;14.65;;;21.30;99.90;;;;;;5011872;28;20405;-72
2023/06/20 08:40:50;;;;;;;15.75;14.32;;;21.30;99.90;;;;;;4989329;28;20053;-72
2023/06/20 08:43:16;;;;;;;15.75;14.15;;;21.30;99.90;;;;;;5014837;28;20052;-72
2023/06/20 08:45:42;;;;;;;16.65;14.95;;;21.30;99.90;;;;;;5029269;28;21417;-72
2023/06/20 08:48:09;;;;;;;15.95;14.35;;;21.40;99.90;;;;;;5027080;28;20045;-72
2023/06/20 08:50:36;;;;;;;14.32;13.13;;;21.50;99.90;;;;;;5006624;28;20435;-72
2023/06/20 08:53:05;;;;;;;16.67;15.07;;;21.60;99.90;;;;;;5042247;28;20053;-72
2023/06/20 08:55:32;;;;;;;14.98;13.57;;;21.60;99.90;;;;;;5007637;28;20099;-72
2023/06/20 08:57:58;;;;;;;15.45;13.85;;;21.60;99.90;;;;;;5025150;28;20048;-72
2023/06/20 09:00:24;;;;;;;15.85;14.45;;;21.70;99.90;;;;;;5004924;28;20041;-72
2023/06/20 09:02:50;;;;;;;15.20;13.90;;;21.80;99.90;;;;;;5025192;28;20060;-72
2023/06/20 09:05:17;;;;;;;14.57;13.27;;;21.80;99.90;;;;;;5025646;28;20106;-72
2023/06/20 09:07:44;;;;;;;16.45;14.80;;;21.90;99.90;;;;;;5028733;28;20033;-72
2023/06/20 09:10:13;;;;;;;14.95;13.65;;;22.00;99.90;;;;;;5007716;28;20048;-72
2023/06/20 09:12:49;;;;;;;14.68;13.20;;;22.00;99.90;;;;;;5014480;28;20049;-73
2023/06/20 09:15:22;;;;;;;14.55;13.20;;;22.20;99.90;;;;;;5010444;28;20048;-72
2023/06/20 09:17:55;;;;;;;12.95;11.70;;;22.30;99.90;;;;;;5027816;28;20505;-72
2023/06/20 09:20:25;;;;;;;12.68;11.38;;;22.50;99.90;;;;;;5009817;28;20057;-72
2023/06/20 09:22:51;;;;;;;12.43;11.25;;;22.70;99.90;;;;;;5026990;28;20057;-72
2023/06/20 09:25:22;;;;;;;13.32;12.07;;;23.10;99.90;;;;;;5024816;28;20049;-72
2023/06/20 09:27:52;;;;;;;11.93;10.93;;;23.40;99.90;;;;;;5027156;28;20041;-72
2023/06/20 09:30:18;;;;;;;10.93;9.98;;;23.60;99.90;;;;;;5024497;28;20102;-71
2023/06/20 09:32:43;;;;;;;10.45;9.48;;;23.80;99.90;;;;;;5027033;28;20429;-72
2023/06/20 09:35:11;;;;;;;11.25;10.15;;;23.80;99.90;;;;;;5027224;28;20560;-71
2023/06/20 09:37:43;;;;;;;;;;;23.90;99.90;;;;;;5026234;28;20128;-71
2023/06/20 09:40:13;;;;;;;10.68;9.68;;;23.90;99.90;;;;;;5026599;28;19979;-71
2023/06/20 09:42:40;;;;;;;10.43;9.35;;;24.00;99.90;;;;;;5006554;28;20048;-72
2023/06/20 09:45:10;;;;;;;10.88;9.77;;;24.20;99.90;;;;;;5027700;28;20047;-71
2023/06/20 09:47:38;;;;;;;9.40;8.60;;;24.30;99.90;;;;;;5026957;28;20493;-71
2023/06/20 09:50:09;;;;;;;9.85;8.85;;;24.30;99.90;;;;;;5025856;28;20052;-71
2023/06/20 09:52:45;;;;;;;10.15;9.20;;;24.50;99.90;;;;;;5028282;28;20096;-71
2023/06/20 09:55:15;;;;;;;10.27;9.38;;;24.60;99.90;;;;;;5025581;28;20513;-72
2023/06/20 09:57:44;;;;;;;;;;;24.80;99.90;;;;;;5026396;28;20053;-75
2023/06/20 10:00:15;;;;;;;9.93;8.88;;;25.00;99.90;;;;;;5024978;28;20401;-78
2023/06/20 10:02:46;;;;;;;10.02;9.07;;;25.00;99.90;;;;;;5024989;28;20049;-77
2023/06/20 10:05:17;;;;;;;9.73;8.73;;;25.10;99.90;;;;;;5027319;28;20512;-77
2023/06/20 10:07:45;;;;;;;9.57;8.77;;;25.20;99.90;;;;;;5025449;28;20040;-77
2023/06/20 10:10:15;;;;;;;9.30;8.45;;;25.40;99.90;;;;;;5024984;28;20048;-76
2023/06/20 10:12:43;;;;;;;10.38;9.38;;;25.60;99.90;;;;;;5024237;28;20072;-77
2023/06/20 10:15:10;;;;;;;10.20;9.20;;;25.70;99.90;;;;;;5007555;28;20525;-77
2023/06/20 10:17:49;;;;;;;9.75;8.70;;;25.80;99.90;;;;;;5020698;28;20045;-77
2023/06/20 10:20:37;;;;;;;9.45;8.48;;;26.10;99.90;;;;;;5026998;28;20045;-77
2023/06/20 10:23:05;;;;;;;10.48;9.52;;;26.20;99.90;;;;;;5027814;28;20494;-71
2023/06/20 10:25:32;;;;;;;9.90;9.00;;;26.30;99.90;;;;;;5024450;28;20056;-71
2023/06/20 10:28:01;;;;;;;9.20;8.40;;;26.30;99.90;;;;;;4991405;28;20033;-71
2023/06/20 10:30:46;;;;;;;9.82;8.88;;;26.30;99.90;;;;;;5026277;28;20084;-71
2023/06/20 10:33:19;;;;;;;9.73;8.77;;;26.40;99.90;;;;;;5041194;28;20401;-71
2023/06/20 10:35:48;;;;;;;8.73;7.82;;;26.60;99.90;;;;;;5041734;28;20037;-71
2023/06/20 10:38:14;;;;;;;8.55;7.70;;;26.80;99.90;;;;;;5023034;28;20521;-71
2023/06/20 10:40:40;;;;;;;8.68;7.88;;;26.80;99.90;;;;;;5010987;28;20079;-71
2023/06/20 10:43:14;;;;;;;8.70;7.90;;;27.00;99.90;;;;;;5022895;28;20053;-71
2023/06/20 10:45:59;;;;;;;8.52;7.72;;;27.10;99.90;;;;;;5020427;28;20045;-72
2023/06/20 10:48:26;;;;;;;8.60;7.22;;;27.10;98.70;;;;;;5011204;28;20390;-71
2023/06/20 10:51:01;;;;;;;9.43;8.63;;;27.10;99.70;;;;;;5009028;28;20052;-72
2023/06/20 10:53:28;;;;;;;7.88;7.13;;;27.10;97.50;;;;;;5022945;28;20037;-73
2023/06/20 10:55:54;;;;;;;7.85;7.05;;;27.10;97.70;;;;;;4992175;28;20043;-72
2023/06/20 10:58:20;;;;;;;8.40;7.60;;;27.10;97.90;;;;;;4989147;28;20794;-72
2023/06/20 11:00:47;;;;;;;8.30;7.60;;;27.10;98.30;;;;;;5009503;28;20041;-72
2023/06/20 11:03:13;;;;;;;8.70;7.82;;;27.20;98.20;;;;;;5008841;28;20061;-72
2023/06/20 11:05:39;;;;;;;8.82;6.95;;;27.30;97.80;;;;;;5024927;28;20121;-72
2023/06/20 11:08:07;;;;;;;7.88;7.20;;;27.50;97.80;;;;;;5005322;28;20123;-72
2023/06/20 11:10:34;;;;;;;8.27;6.57;;;27.70;97.50;;;;;;5006050;28;20578;-72
2023/06/20 11:13:03;;;;;;;7.55;6.90;;;27.90;97.30;;;;;;5037600;28;20049;-72
2023/06/20 11:15:34;;;;;;;9.23;8.32;;;27.90;96.80;;;;;;5028500;28;20059;-72
2023/06/20 11:18:05;;;;;;;8.60;7.90;;;28.10;96.80;;;;;;4993550;28;20049;-72
2023/06/20 11:20:36;;;;;;;8.43;7.65;;;28.30;95.80;;;;;;5026416;28;20083;-72
2023/06/20 11:23:10;;;;;;;7.25;6.55;;;28.50;95.20;;;;;;5028008;28;20045;-71
2023/06/20 11:25:38;;;;;;;8.48;6.93;;;28.50;94.40;;;;;;5041216;28;20056;-71
2023/06/20 11:28:07;;;;;;;7.22;6.50;;;28.60;94.10;;;;;;5005690;28;20048;-72
2023/06/20 11:30:35;;;;;;;6.88;6.32;;;28.60;93.60;;;;;;5026887;28;20037;-72
2023/06/20 11:33:09;;;;;;;7.53;6.72;;;28.60;93.40;;;;;;5005883;28;20056;-72
2023/06/20 11:35:39;;;;;;;7.85;6.68;;;28.70;93.20;;;;;;5024686;28;20175;-75
2023/06/20 11:38:05;;;;;;;7.43;6.72;;;28.70;92.80;;;;;;5006586;28;20136;-75
2023/06/20 11:40:31;;;;;;;7.80;7.10;;;28.70;92.50;;;;;;4972346;28;20064;-75
2023/06/20 11:42:57;;;;;;;8.30;7.50;;;28.70;92.50;;;;;;5004273;28;20037;-75
2023/06/20 11:45:26;;;;;;;9.10;8.20;;;28.70;92.50;;;;;;4987585;28;20053;-75
2023/06/20 11:48:14;;;;;;;8.93;7.85;;;28.70;92.10;;;;;;4972480;28;20054;-76
2023/06/20 11:50:44;;;;;;;8.15;7.45;;;28.70;92.60;;;;;;5016481;28;20045;-76
2023/06/20 11:53:21;;;;;;;8.05;7.25;;;28.80;92.60;;;;;;5005761;28;20525;-77
2023/06/20 11:55:51;;;;;;;8.20;7.40;;;28.90;91.80;;;;;;5004973;28;20041;-76
2023/06/20 11:58:17;;;;;;;6.82;6.22;;;28.70;90.90;;;;;;5008581;28;20103;-76
2023/06/20 12:00:47;;;;;;;8.43;7.28;;;28.50;91.20;;;;;;5006267;28;20453;-76
2023/06/20 12:03:21;;;;;;;7.85;6.93;;;28.40;92.00;;;;;;5008507;28;20053;-76
2023/06/20 12:05:47;;;;;;;7.10;6.15;;;28.60;90.50;;;;;;5008789;28;20095;-77
2023/06/20 12:08:13;;;;;;;7.53;6.72;;;28.70;90.50;;;;;;5008414;28;20056;-77
2023/06/20 12:11:00;;;;;;;7.82;7.07;;;28.70;88.80;;;;;;4975598;28;20049;-76
2023/06/20 12:13:27;;;;;;;10.88;7.38;;;28.70;90.50;;;;;;5023768;28;20054;-77
2023/06/20 12:15:52;;;;;;;7.18;6.40;;;28.70;90.40;;;;;;5007612;28;20439;-76
2023/06/20 12:18:21;;;;;;;9.65;6.63;;;28.60;90.80;;;;;;5005319;28;20104;-72
2023/06/20 12:20:49;;;;;;;7.88;6.63;;;28.70;91.20;;;;;;4993377;28;20132;-72
2023/06/20 12:23:15;;;;;;;7.32;6.63;;;28.80;91.00;;;;;;5009415;28;20461;-72
2023/06/20 12:25:41;;;;;;;7.20;6.50;;;28.80;90.70;;;;;;4989736;28;20037;-71
2023/06/20 12:28:08;;;;;;;7.53;6.80;;;28.90;90.90;;;;;;4993651;28;20042;-72
2023/06/20 12:30:40;;;;;;;8.68;7.53;;;29.10;91.20;;;;;;4992828;28;20077;-71
2023/06/20 12:33:09;;;;;;;7.57;6.15;;;29.10;90.10;;;;;;4974947;28;20084;-72
2023/06/20 12:35:35;;;;;;;9.15;6.57;;;29.00;90.10;;;;;;5010637;28;20426;-71